Time;durP1;ratioP1;P1;durP2;ratioP2;P2;SDS_P1;SDS_P2;PMS_P1;PMS_P2;Temp;Humidity;BMP_temperature;BMP_pressure;BME280_temperature;BME280_humidity;BME280_pressure;Samples;Min_cycle;Max_cycle;Signal;HPM_P1;HPM_P2
2022/12/19 00:00:18;;;;;;;77.10;46.90;;;;;;;-8.82;75.34;102413.58;108130;1283;21940;-82
2022/12/19 00:03:11;;;;;;;82.50;46.80;;;;;;;-8.87;75.33;102411.02;108414;1283;22738;-80
2022/12/19 00:05:41;;;;;;;;;;;;;;;-8.90;75.36;102405.89;108488;1284;23325;-80
2022/12/19 00:08:21;;;;;;;72.10;41.40;;;;;;;-9.01;75.40;102401.30;108394;1282;21967;-79
2022/12/19 00:10:58;;;;;;;80.30;45.60;;;;;;;-9.05;75.45;102397.66;108398;1283;21956;-80
2022/12/19 00:13:42;;;;;;;75.70;43.00;;;;;;;-9.06;75.42;102393.25;108512;1283;21950;-80
2022/12/19 00:16:20;;;;;;;79.20;45.30;;;;;;;-9.07;75.44;102385.27;107973;1286;22196;-79
2022/12/19 00:18:58;;;;;;;76.00;44.70;;;;;;;-9.08;75.50;102378.27;107716;1286;21959;-80
2022/12/19 00:21:32;;;;;;;76.90;46.70;;;;;;;-9.08;75.44;102378.41;108001;1277;21943;-81
2022/12/19 00:24:09;;;;;;;80.00;44.00;;;;;;;-9.08;75.51;102376.72;107701;1292;22104;-80
2022/12/19 00:27:00;;;;;;;77.80;44.70;;;;;;;-9.05;75.51;102374.73;107567;1290;21848;-80
2022/12/19 00:29:32;;;;;;;80.80;44.40;;;;;;;-9.01;75.47;102370.08;107070;1291;21956;-80
2022/12/19 00:32:21;;;;;;;77.60;42.10;;;;;;;-9.00;75.45;102362.92;107693;1291;21972;-80
2022/12/19 00:34:51;;;;;;;80.80;47.30;;;;;;;-9.00;75.55;102357.02;107150;1295;23639;-79
2022/12/19 00:37:45;;;;;;;75.50;44.00;;;;;;;-9.01;75.47;102352.08;107338;1294;21955;-78
2022/12/19 00:40:35;;;;;;;74.60;41.00;;;;;;;-9.00;75.57;102351.28;107437;1292;22566;-79
2022/12/19 00:43:10;;;;;;;76.70;44.20;;;;;;;-8.98;75.65;102347.89;107945;1286;21974;-80
2022/12/19 00:45:42;;;;;;;70.80;42.80;;;;;;;-8.93;75.61;102348.11;108087;1286;21968;-80
2022/12/19 00:48:24;;;;;;;69.30;39.40;;;;;;;-8.90;75.59;102345.98;108061;1288;23087;-78
2022/12/19 00:51:06;;;;;;;69.10;42.80;;;;;;;-8.86;75.52;102344.38;108096;1286;22045;-79
2022/12/19 00:53:38;;;;;;;72.30;40.00;;;;;;;-8.84;75.53;102335.63;108221;1283;23070;-79
2022/12/19 00:56:31;;;;;;;69.90;41.10;;;;;;;-8.79;75.56;102331.55;108330;1281;23700;-79
2022/12/19 00:59:12;;;;;;;65.10;38.70;;;;;;;-8.77;75.46;102333.88;108505;1283;21932;-79
2022/12/19 01:01:49;;;;;;;71.40;43.50;;;;;;;-8.79;75.33;102333.95;108320;1282;21940;-79
2022/12/19 01:04:29;;;;;;;72.30;39.20;;;;;;;-8.81;75.26;102324.02;108551;1281;23067;-80
2022/12/19 01:07:10;;;;;;;65.90;40.30;;;;;;;-8.83;75.32;102318.14;108331;1283;21972;-80
2022/12/19 01:09:47;;;;;;;66.50;38.50;;;;;;;-8.81;75.26;102316.19;108437;1283;22341;-80
2022/12/19 01:15:19;;;;;;;68.80;37.20;;;;;;;-8.82;75.31;102309.55;108226;1283;22909;-78
2022/12/19 01:18:03;;;;;;;69.40;39.70;;;;;;;-8.84;75.23;102311.63;107647;1289;22741;-81
2022/12/19 01:20:46;;;;;;;71.90;41.30;;;;;;;-8.84;75.23;102311.12;107969;1289;22354;-81
2022/12/19 01:23:21;;;;;;;59.90;36.80;;;;;;;-8.85;75.33;102305.80;107658;1289;22059;-79
2022/12/19 01:25:54;;;;;;;59.70;37.70;;;;;;;-8.85;75.44;102299.23;107836;1287;21995;-80
2022/12/19 01:28:27;;;;;;;60.30;36.50;;;;;;;-8.82;75.43;102297.45;107811;1289;21969;-81
2022/12/19 01:31:05;;;;;;;65.40;39.20;;;;;;;-8.77;75.33;102298.41;108046;1288;22580;-80
2022/12/19 01:33:50;;;;;;;68.30;39.20;;;;;;;-8.74;75.32;102294.11;107850;1289;21971;-78
2022/12/19 01:36:28;;;;;;;64.90;39.50;;;;;;;-8.73;75.29;102287.77;107784;1289;22374;-81
2022/12/19 01:39:19;;;;;;;69.90;39.60;;;;;;;-8.73;75.24;102281.73;107487;1292;23822;-79
2022/12/19 01:41:59;;;;;;;67.20;40.40;;;;;;;-8.72;75.28;102277.92;107918;1286;21952;-78
2022/12/19 01:44:39;;;;;;;63.00;37.50;;;;;;;-8.72;75.23;102278.23;107373;1292;22087;-79
2022/12/19 01:47:12;;;;;;;63.30;35.70;;;;;;;-8.72;75.29;102277.73;107795;1287;21965;-80
2022/12/19 01:49:56;;;;;;;67.20;39.20;;;;;;;-8.71;75.27;102275.91;107800;1291;21974;-79
2022/12/19 01:52:37;;;;;;;62.70;38.00;;;;;;;-8.70;75.37;102272.79;107566;1291;21932;-79
2022/12/19 01:55:17;;;;;;;69.70;38.60;;;;;;;-8.69;75.32;102268.81;107491;1292;22476;-79
2022/12/19 01:57:55;;;;;;;60.70;36.30;;;;;;;-8.68;75.31;102272.92;107782;1288;22028;-80
2022/12/19 02:00:31;;;;;;;66.90;39.70;;;;;;;-8.69;75.24;102271.55;108040;1288;21963;-78
2022/12/19 02:03:44;;;;;;;64.60;36.90;;;;;;;-8.69;75.21;102266.94;108191;1282;22890;-79
2022/12/19 02:06:29;;;;;;;71.80;40.20;;;;;;;-8.71;75.26;102264.98;108203;1283;22350;-80
2022/12/19 02:09:11;;;;;;;61.30;37.10;;;;;;;-8.70;75.23;102258.79;107875;1280;21957;-79
2022/12/19 02:11:58;;;;;;;63.40;36.30;;;;;;;-8.66;75.34;102255.36;108070;1282;21961;-79
2022/12/19 02:14:33;;;;;;;60.60;36.60;;;;;;;-8.61;75.43;102252.46;108270;1283;21945;-80
2022/12/19 02:17:19;;;;;;;62.20;37.10;;;;;;;-8.57;75.35;102248.36;108440;1283;21934;-79
2022/12/19 02:20:09;;;;;;;61.70;36.80;;;;;;;-8.54;75.30;102241.35;108521;1283;23748;-80
2022/12/19 02:23:45;;;;;;;62.90;37.20;;;;;;;-8.48;75.29;102234.36;108472;1283;21943;-80
2022/12/19 02:26:18;;;;;;;;;;;;;;;-8.43;75.24;102222.48;108340;1283;23324;-80
2022/12/19 02:29:16;;;;;;;64.40;35.80;;;;;;;-8.42;75.33;102222.56;108491;1283;23925;-79
2022/12/19 02:32:05;;;;;;;56.50;33.90;;;;;;;-8.40;75.24;102221.70;108560;1282;21954;-79
2022/12/19 02:34:55;;;;;;;68.20;36.70;;;;;;;-8.36;75.09;102218.08;108468;1280;22638;-80
2022/12/19 02:37:31;;;;;;;61.10;35.80;;;;;;;-8.34;75.15;102213.77;108493;1276;21995;-80
2022/12/19 02:40:44;;;;;;;63.80;36.90;;;;;;;-8.30;75.14;102213.45;108325;1283;22435;-79
2022/12/19 02:43:40;;;;;;;57.40;35.20;;;;;;;-8.26;75.13;102212.67;108557;1282;23610;-81
2022/12/19 02:46:19;;;;;;;58.80;36.40;;;;;;;-8.22;74.97;102209.85;108276;1282;22008;-79
2022/12/19 02:49:05;;;;;;;58.20;35.20;;;;;;;-8.20;74.93;102208.14;108214;1283;21977;-80
2022/12/19 02:51:38;;;;;;;59.40;35.60;;;;;;;-8.17;74.83;102203.95;108532;1283;21973;-80
2022/12/19 02:54:15;;;;;;;56.30;33.50;;;;;;;-8.16;74.86;102206.74;108441;1284;21938;-79
2022/12/19 02:57:10;;;;;;;62.90;34.80;;;;;;;-8.15;74.86;102209.14;108170;1283;21942;-80
2022/12/19 03:00:13;;;;;;;64.70;37.20;;;;;;;-8.13;74.83;102205.05;108249;1282;21936;-81
2022/12/19 03:02:52;;;;;;;56.70;33.80;;;;;;;-8.11;74.87;102202.37;108315;1282;23057;-80
2022/12/19 03:06:20;;;;;;;;;;;;;;;;;;;;;
2022/12/19 03:09:31;;;;;;;61.40;34.30;;;;;;;-8.02;74.87;102196.70;108478;1283;23795;-80
2022/12/19 03:12:34;;;;;;;;;;;;;;;;;;;;;
2022/12/19 03:15:14;;;;;;;55.30;31.60;;;;;;;-7.99;74.80;102188.30;108179;1282;21917;-79
2022/12/19 03:18:07;;;;;;;57.80;34.80;;;;;;;-7.96;74.77;102176.48;108251;1283;23675;-81
2022/12/19 03:21:10;;;;;;;62.60;35.70;;;;;;;-7.94;74.71;102172.22;108511;1282;22056;-80
2022/12/19 03:23:49;;;;;;;55.70;32.80;;;;;;;-7.95;74.62;102161.02;108438;1282;21949;-81
2022/12/19 03:27:36;;;;;;;57.90;34.10;;;;;;;-7.95;74.55;102159.17;107987;1289;21966;-80
2022/12/19 03:30:11;;;;;;;56.80;33.80;;;;;;;-7.91;74.73;102158.04;107281;1292;22368;-79
2022/12/19 03:32:49;;;;;;;55.30;33.30;;;;;;;-7.86;74.69;102158.44;107636;1292;21963;-78
2022/12/19 03:35:33;;;;;;;61.00;33.10;;;;;;;-7.75;74.74;102157.93;106452;1296;23080;-79
2022/12/19 03:38:20;;;;;;;56.90;33.00;;;;;;;-7.69;74.48;102149.67;106055;1302;22742;-79
2022/12/19 03:41:02;;;;;;;57.60;33.30;;;;;;;-7.67;74.71;102142.56;106235;1303;21964;-82
2022/12/19 03:44:26;;;;;;;53.10;32.10;;;;;;;-7.64;74.52;102141.54;106295;1297;22730;-78
2022/12/19 03:47:45;;;;;;;59.10;34.20;;;;;;;-7.62;74.40;102133.92;106899;1296;21965;-82
2022/12/19 03:50:23;;;;;;;55.10;30.90;;;;;;;-7.57;74.44;102125.93;106596;1297;23067;-80
2022/12/19 03:53:34;;;;;;;57.80;32.80;;;;;;;-7.53;74.30;102126.23;106735;1291;21972;-81
2022/12/19 03:56:38;;;;;;;49.50;29.90;;;;;;;-7.45;74.41;102123.31;107830;1288;21949;-83
2022/12/19 03:59:36;;;;;;;54.60;32.50;;;;;;;-7.40;74.34;102124.51;107861;1289;21959;-80
2022/12/19 04:02:12;;;;;;;48.00;29.90;;;;;;;-7.33;74.34;102115.78;108136;1283;21955;-81
2022/12/19 04:04:59;;;;;;;50.80;31.50;;;;;;;-7.23;74.42;102114.25;108213;1282;21935;-82
2022/12/19 04:07:40;;;;;;;51.40;30.10;;;;;;;-7.14;74.25;102115.15;108171;1286;21951;-81
2022/12/19 04:10:22;;;;;;;51.60;29.60;;;;;;;-7.07;74.12;102117.56;107996;1288;23942;-80
2022/12/19 04:13:10;;;;;;;48.30;29.60;;;;;;;-7.01;74.16;102122.01;108134;1288;23074;-81
2022/12/19 04:16:10;;;;;;;54.10;32.60;;;;;;;-6.97;73.96;102125.31;108035;1274;22814;-81
2022/12/19 04:18:52;;;;;;;50.20;29.90;;;;;;;-6.95;73.82;102120.00;108117;1278;23716;-79
2022/12/19 04:21:35;;;;;;;49.40;31.30;;;;;;;-6.96;73.60;102109.80;108012;1277;21945;-79
2022/12/19 04:24:18;;;;;;;52.70;30.80;;;;;;;-6.97;73.48;102108.58;107897;1287;21882;-80
2022/12/19 04:26:58;;;;;;;54.40;32.70;;;;;;;-6.96;73.36;102110.46;108433;1282;21952;-80
2022/12/19 04:29:35;;;;;;;51.70;30.70;;;;;;;-6.96;73.43;102110.85;108458;1283;22296;-80
2022/12/19 04:32:09;;;;;;;51.70;30.40;;;;;;;-6.95;73.27;102113.93;108198;1282;21946;-80
2022/12/19 04:34:39;;;;;;;47.80;28.80;;;;;;;-6.93;73.24;102111.02;108346;1283;23735;-81
2022/12/19 04:37:19;;;;;;;53.20;30.00;;;;;;;-6.92;73.01;102101.76;108439;1281;24335;-80
2022/12/19 04:39:50;;;;;;;59.40;35.00;;;;;;;-6.89;73.07;102103.82;108486;1282;21957;-81
2022/12/19 04:42:26;;;;;;;49.00;31.80;;;;;;;-6.88;73.00;102105.39;108554;1283;21989;-83
2022/12/19 04:44:56;;;;;;;55.40;32.20;;;;;;;-6.86;73.10;102104.98;108304;1283;22341;-79
2022/12/19 04:47:25;;;;;;;55.50;34.70;;;;;;;-6.86;72.71;102105.35;108081;1289;21967;-81
2022/12/19 04:49:55;;;;;;;53.80;34.00;;;;;;;-6.87;72.62;102103.94;108090;1288;21919;-81
2022/12/19 04:52:25;;;;;;;54.50;32.00;;;;;;;-6.89;72.57;102095.66;108050;1288;21952;-79
2022/12/19 04:54:58;;;;;;;52.50;31.10;;;;;;;-6.93;72.54;102094.56;107940;1285;21976;-81
2022/12/19 04:57:38;;;;;;;50.30;31.00;;;;;;;-6.96;72.52;102087.47;107649;1288;21916;-81
2022/12/19 05:00:12;;;;;;;53.20;34.20;;;;;;;-6.98;72.55;102085.30;108046;1289;21961;-81
2022/12/19 05:02:44;;;;;;;53.00;33.40;;;;;;;-6.99;72.64;102083.42;107925;1288;23716;-81
2022/12/19 05:05:23;;;;;;;47.60;30.50;;;;;;;-6.99;72.54;102076.44;108138;1282;21955;-81
2022/12/19 05:07:54;;;;;;;53.80;32.60;;;;;;;-7.02;72.32;102073.73;108240;1283;21951;-80
2022/12/19 05:10:24;;;;;;;54.00;34.90;;;;;;;-7.03;72.36;102066.20;108193;1282;23053;-82
2022/12/19 05:12:55;;;;;;;56.10;35.60;;;;;;;-7.04;72.41;102060.05;108423;1278;21962;-81
2022/12/19 05:15:38;;;;;;;55.90;34.60;;;;;;;-7.04;72.49;102058.52;108360;1282;23792;-81
2022/12/19 05:18:09;;;;;;;51.80;32.50;;;;;;;-7.05;72.54;102052.40;108421;1283;21923;-81
2022/12/19 05:20:39;;;;;;;60.00;34.20;;;;;;;-7.05;72.40;102047.28;108419;1283;23750;-82
2022/12/19 05:23:10;;;;;;;51.10;32.90;;;;;;;-7.04;72.43;102051.44;108508;1282;23599;-80
2022/12/19 05:25:52;;;;;;;48.70;30.30;;;;;;;-7.00;72.54;102052.33;108406;1283;23117;-81
2022/12/19 05:28:25;;;;;;;43.80;28.90;;;;;;;-6.95;72.55;102049.98;108245;1279;22003;-79
2022/12/19 05:31:03;;;;;;;58.50;34.80;;;;;;;-6.91;72.42;102048.67;107976;1283;22001;-80
2022/12/19 05:33:35;;;;;;;49.40;30.90;;;;;;;-6.86;72.38;102046.24;108392;1283;23656;-81
2022/12/19 05:36:10;;;;;;;54.50;32.30;;;;;;;-6.80;72.36;102040.65;108465;1282;23028;-81
2022/12/19 05:38:42;;;;;;;57.00;31.60;;;;;;;-6.76;72.28;102038.23;108315;1282;21950;-86
2022/12/19 05:41:19;;;;;;;54.70;31.40;;;;;;;-6.74;72.20;102038.18;108443;1282;21933;-84
2022/12/19 05:43:55;;;;;;;51.70;29.70;;;;;;;-6.71;72.07;102034.79;108373;1282;22009;-82
2022/12/19 05:46:24;;;;;;;52.50;31.70;;;;;;;-6.68;71.97;102029.58;107967;1289;23222;-82
2022/12/19 05:48:58;;;;;;;51.90;32.00;;;;;;;-6.65;71.97;102025.69;108033;1286;21994;-80
2022/12/19 05:51:28;;;;;;;53.10;30.60;;;;;;;-6.63;71.62;102026.95;108086;1286;21937;-81
2022/12/19 05:54:04;;;;;;;56.50;34.10;;;;;;;-6.61;71.67;102030.42;107494;1290;21975;-81
2022/12/19 05:56:39;;;;;;;52.80;32.30;;;;;;;-6.61;71.42;102030.27;107525;1294;23842;-80
2022/12/19 05:59:10;;;;;;;50.60;30.80;;;;;;;-6.63;71.44;102030.66;107374;1293;23120;-82
2022/12/19 06:01:41;;;;;;;55.20;34.90;;;;;;;-6.64;71.33;102028.59;107445;1294;21958;-83
2022/12/19 06:04:14;;;;;;;51.20;31.10;;;;;;;-6.65;71.16;102025.29;107376;1288;23120;-82
2022/12/19 06:06:48;;;;;;;44.00;30.80;;;;;;;-6.67;71.13;102019.44;108081;1288;22063;-84
2022/12/19 06:09:22;;;;;;;50.90;31.90;;;;;;;-6.69;71.12;102020.37;108132;1288;21965;-82
2022/12/19 06:12:09;;;;;;;49.60;31.40;;;;;;;-6.71;71.11;102016.00;108157;1283;21926;-84
2022/12/19 06:14:58;;;;;;;49.70;30.60;;;;;;;-6.70;71.13;102017.89;108327;1281;21946;-81
2022/12/19 06:17:30;;;;;;;59.90;36.10;;;;;;;-6.69;71.18;102012.88;108398;1283;21977;-85
2022/12/19 06:20:05;;;;;;;59.20;35.80;;;;;;;-6.69;71.08;102013.41;108498;1283;21969;-75
2022/12/19 06:22:34;;;;;;;55.60;33.90;;;;;;;-6.58;71.49;102016.60;108389;1277;23640;-79
2022/12/19 06:25:18;;;;;;;58.40;35.50;;;;;;;-6.42;71.45;102015.83;108435;1282;24489;-80
2022/12/19 06:27:48;;;;;;;56.30;34.90;;;;;;;-6.37;71.12;102017.61;108339;1283;21998;-79
2022/12/19 06:30:23;;;;;;;51.20;34.70;;;;;;;-6.32;71.00;102025.00;108303;1283;21949;-76
2022/12/19 06:32:53;;;;;;;59.40;36.60;;;;;;;-6.28;70.98;102025.23;108211;1283;21950;-77
2022/12/19 06:35:25;;;;;;;60.60;36.00;;;;;;;-6.26;70.79;102026.19;108083;1282;23019;-76
2022/12/19 06:37:58;;;;;;;55.90;33.20;;;;;;;-6.24;70.67;102025.32;108174;1283;23691;-78
2022/12/19 06:43:37;;;;;;;48.10;31.80;;;;;;;-6.23;70.71;102026.05;108167;1282;23741;-77
2022/12/19 06:46:07;;;;;;;50.50;32.60;;;;;;;-6.22;70.72;102029.33;108108;1283;23092;-75
2022/12/19 06:48:36;;;;;;;51.40;31.70;;;;;;;-6.21;70.52;102032.45;108028;1283;21941;-76
2022/12/19 06:51:06;;;;;;;54.90;33.40;;;;;;;-6.20;70.52;102033.30;108046;1282;21955;-76
2022/12/19 06:53:35;;;;;;;53.20;33.50;;;;;;;-6.21;70.45;102032.95;107909;1271;23866;-77
2022/12/19 06:56:04;;;;;;;55.80;35.50;;;;;;;-6.22;70.49;102029.50;108160;1278;23005;-77
2022/12/19 06:58:33;;;;;;;53.10;35.20;;;;;;;-6.21;70.45;102029.37;107792;1283;21954;-78
2022/12/19 07:01:02;;;;;;;57.10;34.70;;;;;;;-6.21;70.45;102031.24;108211;1268;23081;-76
2022/12/19 07:03:39;;;;;;;57.30;32.90;;;;;;;-6.22;70.27;102034.42;108344;1282;21984;-75
2022/12/19 07:06:08;;;;;;;53.90;33.90;;;;;;;-6.24;70.30;102034.80;108246;1283;22167;-77
2022/12/19 07:08:36;;;;;;;51.30;33.30;;;;;;;-6.25;70.27;102028.30;108361;1282;22998;-75
2022/12/19 07:11:05;;;;;;;55.60;34.10;;;;;;;-6.27;70.17;102024.96;108369;1281;21967;-75
2022/12/19 07:13:37;;;;;;;51.20;33.30;;;;;;;-6.30;70.17;102021.24;108230;1282;24137;-76
2022/12/19 07:16:07;;;;;;;56.20;35.20;;;;;;;-6.32;70.22;102025.02;108211;1282;21985;-76
2022/12/19 07:18:39;;;;;;;55.80;36.00;;;;;;;-6.33;70.16;102029.06;108262;1281;21944;-76
2022/12/19 07:21:12;;;;;;;50.30;31.80;;;;;;;-6.36;70.06;102026.98;108249;1283;23017;-76
2022/12/19 07:23:44;;;;;;;49.50;33.00;;;;;;;-6.39;70.07;102026.64;108255;1283;23605;-77
2022/12/19 07:26:13;;;;;;;60.20;36.30;;;;;;;-6.41;70.12;102027.38;108271;1283;22006;-77
2022/12/19 07:28:43;;;;;;;61.20;36.30;;;;;;;-6.42;70.16;102029.70;108110;1282;22455;-76
2022/12/19 07:31:12;;;;;;;59.90;37.10;;;;;;;-6.41;70.18;102031.64;108164;1283;23039;-77
2022/12/19 07:33:43;;;;;;;53.80;32.90;;;;;;;-6.38;70.23;102022.66;108113;1282;21943;-76
2022/12/19 07:36:13;;;;;;;64.50;39.80;;;;;;;-6.36;70.24;102013.60;108217;1283;23757;-76
2022/12/19 07:38:42;;;;;;;62.60;36.70;;;;;;;-6.33;70.31;102009.06;108193;1283;21957;-77
2022/12/19 07:41:12;;;;;;;62.50;36.70;;;;;;;-6.29;70.22;102002.35;108237;1283;21979;-77
2022/12/19 07:43:41;;;;;;;61.40;37.40;;;;;;;-6.25;70.30;101997.77;108219;1283;23090;-77
2022/12/19 07:46:13;;;;;;;61.00;39.80;;;;;;;-6.23;70.30;101994.21;108154;1283;21944;-77
2022/12/19 07:48:42;;;;;;;56.30;34.80;;;;;;;-6.19;70.28;101975.97;108200;1283;21939;-77
2022/12/19 07:51:11;;;;;;;61.30;37.10;;;;;;;-6.15;70.26;101961.80;108188;1272;21992;-77
2022/12/19 07:53:39;;;;;;;62.30;39.80;;;;;;;-6.10;70.25;101959.67;108191;1281;21960;-77
2022/12/19 07:56:08;;;;;;;56.80;38.20;;;;;;;-6.04;70.25;101959.80;108260;1283;23739;-76
2022/12/19 07:58:38;;;;;;;60.50;36.50;;;;;;;-5.99;70.19;101957.54;108214;1284;22276;-76
2022/12/19 08:01:07;;;;;;;62.30;37.80;;;;;;;-5.93;70.16;101955.66;108241;1283;21963;-77
2022/12/19 08:03:36;;;;;;;56.10;36.50;;;;;;;-5.85;70.20;101949.49;107832;1288;23094;-76
2022/12/19 08:06:06;;;;;;;58.50;36.60;;;;;;;-5.78;70.13;101957.30;107671;1288;21991;-77
2022/12/19 08:08:36;;;;;;;63.40;36.50;;;;;;;-5.72;70.15;101962.74;107639;1287;22018;-76
2022/12/19 08:11:12;;;;;;;59.20;35.50;;;;;;;-5.63;70.18;101967.10;107509;1288;23772;-78
2022/12/19 08:13:41;;;;;;;57.40;37.30;;;;;;;-5.56;70.13;101974.30;107476;1288;24050;-75
2022/12/19 08:16:15;;;;;;;56.30;34.80;;;;;;;-5.49;70.16;101966.35;107504;1288;21972;-79
2022/12/19 08:18:44;;;;;;;60.00;39.50;;;;;;;-5.41;70.18;101962.86;107551;1288;22025;-81
2022/12/19 08:21:13;;;;;;;68.50;38.60;;;;;;;-5.31;70.15;101958.30;107654;1283;23705;-78
2022/12/19 08:23:45;;;;;;;61.50;38.30;;;;;;;-5.21;70.05;101957.45;108290;1281;23690;-78
2022/12/19 08:26:23;;;;;;;59.90;36.50;;;;;;;-5.13;69.94;101955.16;108251;1280;22007;-79
2022/12/19 08:29:05;;;;;;;60.10;38.10;;;;;;;-5.05;69.92;101955.75;107973;1282;22020;-77
2022/12/19 08:31:36;;;;;;;61.80;38.50;;;;;;;-4.96;69.94;101948.06;108071;1286;23064;-77
2022/12/19 08:34:05;;;;;;;52.90;35.90;;;;;;;-4.86;69.87;101934.96;108094;1285;21923;-78
2022/12/19 08:36:37;;;;;;;54.50;34.80;;;;;;;-4.78;69.66;101929.07;106865;1286;1350627;-77
2022/12/19 08:39:07;;;;;;;55.50;35.60;;;;;;;-4.73;69.61;101921.20;108031;1286;22817;-76
2022/12/19 08:41:36;;;;;;;51.20;33.90;;;;;;;-4.64;69.67;101920.40;107823;1286;23040;-77
2022/12/19 08:44:06;;;;;;;51.50;34.30;;;;;;;-4.54;69.52;101920.05;107910;1286;22351;-79
2022/12/19 08:46:35;;;;;;;55.20;33.70;;;;;;;-4.46;69.55;101919.59;107842;1286;23112;-80
2022/12/19 08:49:04;;;;;;;49.20;33.60;;;;;;;-4.38;69.58;101922.57;107644;1286;22893;-79
2022/12/19 08:51:33;;;;;;;50.90;34.50;;;;;;;-4.27;69.70;101929.36;107845;1286;22357;-80
2022/12/19 08:54:02;;;;;;;53.60;34.00;;;;;;;-4.17;69.40;101926.44;108091;1286;22060;-80
2022/12/19 08:57:00;;;;;;;50.00;34.10;;;;;;;-4.07;69.35;101912.10;107904;1286;23628;-81
2022/12/19 08:59:29;;;;;;;51.30;33.20;;;;;;;-3.99;69.18;101899.73;108341;1285;21973;-80
2022/12/19 09:02:00;;;;;;;51.40;32.80;;;;;;;-3.92;69.09;101895.79;108085;1286;23049;-80
2022/12/19 09:04:29;;;;;;;52.10;33.50;;;;;;;-3.84;69.08;101899.38;107536;1292;21957;-78
2022/12/19 09:07:18;;;;;;;50.20;33.00;;;;;;;-3.79;68.93;101898.42;107448;1289;24289;-79
2022/12/19 09:09:47;;;;;;;51.40;33.90;;;;;;;-3.73;68.98;101895.82;107771;1283;21941;-79
2022/12/19 09:12:16;;;;;;;50.20;33.80;;;;;;;-3.64;68.93;101885.81;107808;1289;21943;-80
2022/12/19 09:14:45;;;;;;;49.20;33.90;;;;;;;-3.55;68.81;101878.89;107802;1288;23067;-80
2022/12/19 09:17:14;;;;;;;50.70;31.90;;;;;;;-3.48;68.71;101877.16;107872;1286;21974;-81
2022/12/19 09:19:44;;;;;;;47.60;32.80;;;;;;;-3.42;68.62;101870.28;107732;1286;22999;-80
2022/12/19 09:22:16;;;;;;;45.80;32.40;;;;;;;-3.35;68.48;101863.77;108497;1283;21942;-81
2022/12/19 09:24:45;;;;;;;44.70;31.80;;;;;;;-3.32;68.33;101862.18;108331;1282;22688;-80
2022/12/19 09:27:14;;;;;;;52.90;34.40;;;;;;;-3.30;68.24;101863.63;108338;1282;23058;-79
2022/12/19 09:29:43;;;;;;;58.60;36.10;;;;;;;-3.25;68.29;101860.79;108336;1282;23103;-81
2022/12/19 09:32:12;;;;;;;51.40;32.90;;;;;;;-3.21;68.11;101852.27;108540;1282;24931;-80
2022/12/19 09:34:41;;;;;;;44.80;33.70;;;;;;;-3.17;68.22;101846.66;108444;1277;22181;-80
2022/12/19 09:37:11;;;;;;;47.70;31.30;;;;;;;-3.06;68.24;101844.05;108392;1283;21944;-80
2022/12/19 09:39:46;;;;;;;51.90;35.20;;;;;;;-2.95;68.11;101840.24;108238;1282;22347;-77
2022/12/19 09:43:00;;;;;;;50.40;34.70;;;;;;;-2.86;68.00;101838.57;107800;1289;23799;-79
2022/12/19 09:45:47;;;;;;;47.40;31.10;;;;;;;-2.81;67.94;101842.33;107731;1289;23081;-80
2022/12/19 09:48:18;;;;;;;51.90;33.60;;;;;;;-2.77;67.74;101841.98;107276;1294;23612;-81
2022/12/19 09:50:55;;;;;;;48.70;34.40;;;;;;;-2.73;67.56;101829.35;106793;1294;23778;-80
2022/12/19 09:54:05;;;;;;;52.60;35.30;;;;;;;-2.71;67.46;101820.94;107465;1294;21998;-82
2022/12/19 09:56:39;;;;;;;52.60;32.50;;;;;;;-2.67;67.58;101817.01;107333;1292;22325;-78
2022/12/19 09:59:45;;;;;;;53.30;33.40;;;;;;;-2.53;68.04;101803.60;106959;1294;22735;-74
2022/12/19 10:02:53;;;;;;;56.60;35.00;;;;;;;-2.27;68.20;101787.70;107795;1287;21943;-78
2022/12/19 10:06:08;;;;;;;48.20;33.00;;;;;;;-2.04;67.60;101781.39;108212;1283;21939;-78
2022/12/19 10:08:59;;;;;;;;;;;;;;;-1.94;67.15;101776.80;108309;1282;21926;-78
2022/12/19 10:12:07;;;;;;;55.20;36.00;;;;;;;-1.88;67.17;101770.52;108258;1273;22002;-74
2022/12/19 10:15:14;;;;;;;50.80;34.40;;;;;;;-1.81;66.86;101766.86;108523;1283;21953;-81
2022/12/19 10:17:55;;;;;;;53.20;36.50;;;;;;;-1.67;67.04;101763.23;108209;1283;21947;-80
2022/12/19 10:20:35;;;;;;;50.60;34.60;;;;;;;-1.47;66.86;101764.77;108497;1283;24909;-81
2022/12/19 10:23:47;;;;;;;52.50;36.60;;;;;;;-1.38;66.25;101759.44;108432;1281;21925;-82
2022/12/19 10:26:25;;;;;;;54.90;34.90;;;;;;;-1.39;65.89;101751.73;107756;1288;21988;-81
2022/12/19 10:29:17;;;;;;;52.00;36.60;;;;;;;-1.34;65.87;101742.66;107823;1288;21955;-82
2022/12/19 10:32:03;;;;;;;49.70;33.80;;;;;;;-1.24;65.77;101736.33;107796;1288;23005;-81
2022/12/19 10:34:43;;;;;;;49.60;35.70;;;;;;;-1.11;65.73;101725.46;107991;1288;22008;-81
2022/12/19 10:37:35;;;;;;;54.20;36.50;;;;;;;-0.96;65.73;101719.79;107716;1289;21977;-82
2022/12/19 10:40:30;;;;;;;54.20;37.70;;;;;;;-0.74;65.86;101726.29;107804;1288;21955;-81
2022/12/19 10:43:17;;;;;;;52.70;35.40;;;;;;;-0.57;65.47;101722.68;107657;1289;21962;-82
2022/12/19 10:46:12;;;;;;;59.40;42.50;;;;;;;-0.42;65.13;101712.17;108065;1283;21958;-82
2022/12/19 10:48:51;;;;;;;57.30;39.20;;;;;;;-0.21;65.26;101703.71;108454;1282;23778;-79
2022/12/19 10:51:30;;;;;;;60.00;42.60;;;;;;;0.03;64.78;101689.66;108337;1281;21955;-81
2022/12/19 10:54:00;;;;;;;56.50;41.20;;;;;;;0.24;64.34;101687.12;108367;1282;22695;-80
2022/12/19 10:56:31;;;;;;;54.20;41.70;;;;;;;0.49;64.23;101696.84;108091;1282;23045;-82
2022/12/19 10:59:16;;;;;;;47.40;36.40;;;;;;;0.85;63.77;101699.92;108126;1282;22719;-81
2022/12/19 11:01:47;;;;;;;46.40;34.70;;;;;;;1.38;63.41;101702.99;107995;1283;21974;-86
2022/12/19 11:04:33;;;;;;;50.30;37.90;;;;;;;2.16;64.49;101712.62;107695;1289;21964;-86
2022/12/19 11:07:02;;;;;;;42.80;34.40;;;;;;;2.79;62.92;101704.95;107125;1289;21934;-86
2022/12/19 11:09:44;;;;;;;44.70;34.40;;;;;;;2.85;60.07;101698.86;107219;1290;21960;-78
2022/12/19 11:12:35;;;;;;;47.10;35.60;;;;;;;2.37;58.18;101702.87;107296;1293;22055;-80
2022/12/19 11:15:24;;;;;;;50.40;37.20;;;;;;;1.82;57.45;101693.10;107200;1294;23637;-79
2022/12/19 11:18:15;;;;;;;51.50;37.50;;;;;;;1.41;58.04;101685.73;107199;1294;22015;-78
2022/12/19 11:21:15;;;;;;;54.70;36.20;;;;;;;1.08;58.70;101686.59;107269;1294;22008;-84
2022/12/19 11:24:16;;;;;;;48.50;36.00;;;;;;;0.81;58.86;101680.98;107648;1288;21983;-79
2022/12/19 11:27:30;;;;;;;48.60;35.30;;;;;;;0.58;59.33;101672.73;108331;1281;23054;-81
2022/12/19 11:30:26;;;;;;;49.60;36.00;;;;;;;0.40;59.58;101665.78;108403;1283;21931;-80
2022/12/19 11:33:17;;;;;;;44.00;33.10;;;;;;;0.31;60.00;101654.61;108327;1277;23118;-81
2022/12/19 11:35:57;;;;;;;53.00;32.90;;;;;;;0.28;60.17;101654.01;108330;1281;21978;-79
2022/12/19 11:38:52;;;;;;;51.80;35.90;;;;;;;0.23;60.40;101650.29;108335;1282;22247;-79
2022/12/19 11:41:37;;;;;;;47.90;37.10;;;;;;;0.14;60.50;101644.58;108086;1282;22333;-80
2022/12/19 11:44:27;;;;;;;47.00;36.10;;;;;;;0.03;60.55;101641.55;108249;1282;22712;-80
2022/12/19 11:47:40;;;;;;;42.30;31.90;;;;;;;-0.11;60.57;101639.33;108371;1283;23054;-80
2022/12/19 11:50:29;;;;;;;51.20;37.30;;;;;;;-0.22;60.90;101627.20;108328;1272;21953;-81
2022/12/19 11:53:16;;;;;;;51.60;39.10;;;;;;;-0.27;61.14;101621.27;108251;1279;21949;-80
2022/12/19 11:56:00;;;;;;;64.30;45.10;;;;;;;-0.27;61.32;101616.47;108152;1282;23708;-80
2022/12/19 11:58:29;;;;;;;51.00;37.20;;;;;;;-0.27;61.47;101615.61;108125;1283;22995;-79
2022/12/19 12:01:11;;;;;;;48.00;34.60;;;;;;;-0.27;61.49;101614.94;108174;1283;23677;-80
2022/12/19 12:04:02;;;;;;;48.70;36.80;;;;;;;-0.30;61.48;101610.58;108249;1280;21965;-80
2022/12/19 12:06:40;;;;;;;53.30;38.80;;;;;;;-0.31;61.72;101607.48;108369;1282;21956;-81
2022/12/19 12:09:29;;;;;;;62.10;39.10;;;;;;;-0.32;61.80;101603.68;107938;1288;23083;-80